Time;durP1;ratioP1;P1;durP2;ratioP2;P2;SDS_P1;SDS_P2;PMS_P1;PMS_P2;Temp;Humidity;BMP_temperature;BMP_pressure;BME280_temperature;BME280_humidity;BME280_pressure;Samples;Min_cycle;Max_cycle;Signal;HPM_P1;HPM_P2
2023/03/11 00:00:12;;;;;;;;;;;;;;;19.80;57.73;98136.46;2278877;77;51369;-72
2023/03/11 00:03:13;;;;;;;;;;;;;;;19.74;57.76;98142.84;2277370;77;22287;-73
2023/03/11 00:06:14;;;;;;;;;;;;;;;19.73;57.89;98169.91;2288422;77;50757;-73
2023/03/11 00:09:16;;;;;;;;;;;;;;;19.75;57.91;98179.87;2224167;78;52323;-72
2023/03/11 00:12:17;;;;;;;;;;;;;;;19.73;57.90;98188.19;2253483;77;51399;-72
2023/03/11 00:15:19;;;;;;;;;;;;;;;19.76;57.99;98207.00;2273111;77;50598;-73
2023/03/11 00:18:25;;;;;;;;;;;;;;;19.75;57.99;98215.56;2232513;78;50338;-72
2023/03/11 00:21:24;;;;;;;;;;;;;;;19.77;58.02;98225.52;2235038;77;22281;-73
2023/03/11 00:24:26;;;;;;;;;;;;;;;19.79;58.02;98234.67;2268064;77;50274;-73
2023/03/11 00:27:27;;;;;;;;;;;;;;;19.82;57.97;98240.87;2275634;77;50586;-74
2023/03/11 00:30:29;;;;;;;;;;;;;;;19.84;57.91;98244.12;2265434;77;50624;-72
2023/03/11 00:33:31;;;;;;;;;;;;;;;19.91;57.78;98258.68;2263851;77;52468;-72
2023/03/11 00:36:35;;;;;;;;;;;;;;;19.92;57.76;98264.34;2304257;77;50631;-72
2023/03/11 00:39:36;;;;;;;;;;;;;;;19.91;57.69;98268.08;2300964;77;51547;-72
2023/03/11 00:42:38;;;;;;;;;;;;;;;19.90;57.72;98273.17;2306101;77;51491;-72
2023/03/11 00:45:40;;;;;;;;;;;;;;;19.87;57.71;98286.56;2244136;77;50861;-72
2023/03/11 00:48:41;;;;;;;;;;;;;;;19.83;57.75;98283.27;2239981;76;51447;-70
2023/03/11 00:51:43;;;;;;;;;;;;;;;19.78;57.75;98292.90;2300810;77;51347;-72
2023/03/11 00:54:45;;;;;;;;;;;;;;;19.75;57.77;98292.03;2271873;77;51557;-71
2023/03/11 00:57:46;;;;;;;;;;;;;;;19.72;57.93;98296.55;2215594;77;51041;-72
2023/03/11 01:00:48;;;;;;;;;;;;;;;19.72;57.95;98307.82;2279966;77;51523;-73
2023/03/11 01:03:50;;;;;;;;;;;;;;;19.73;57.93;98308.93;2301284;77;51410;-71
2023/03/11 01:06:51;;;;;;;;;;;;;;;19.76;57.89;98322.38;2259981;77;51390;-70
2023/03/11 01:09:53;;;;;;;;;;;;;;;19.77;57.87;98331.50;2231815;78;51054;-72
2023/03/11 01:12:54;;;;;;;;;;;;;;;19.80;57.78;98341.73;2228628;78;50345;-71
2023/03/11 01:15:56;;;;;;;;;;;;;;;19.82;57.77;98350.09;2264892;77;51368;-71
2023/03/11 01:18:58;;;;;;;;;;;;;;;19.82;57.71;98357.61;2263017;78;51395;-71
2023/03/11 01:21:59;;;;;;;;;;;;;;;19.87;57.66;98366.27;2243132;77;52316;-71
2023/03/11 01:25:01;;;;;;;;;;;;;;;19.87;57.64;98379.15;2231183;78;51261;-71
2023/03/11 01:28:02;;;;;;;;;;;;;;;19.89;57.59;98391.80;2264090;77;50335;-71
2023/03/11 01:31:04;;;;;;;;;;;;;;;19.91;57.51;98396.39;2236325;78;52117;-71
2023/03/11 01:34:05;;;;;;;;;;;;;;;19.90;57.48;98409.52;2212067;78;52312;-71
2023/03/11 01:37:07;;;;;;;;;;;;;;;19.88;57.55;98414.84;2296356;77;50297;-72
2023/03/11 01:40:10;;;;;;;;;;;;;;;19.85;57.60;98424.73;2313494;77;50126;-71
2023/03/11 01:43:30;;;;;;;;;;;;;;;19.80;57.61;98430.83;2309589;77;51330;-72
2023/03/11 01:46:50;;;;;;;;;;;;;;;19.75;57.62;98442.29;2275543;78;51548;-72
2023/03/11 01:49:52;;;;;;;;;;;;;;;19.75;57.74;98449.00;2275357;77;50720;-73
2023/03/11 01:52:53;;;;;;;;;;;;;;;19.74;57.78;98456.78;2298000;76;50212;-73
2023/03/11 01:55:54;;;;;;;;;;;;;;;;;;2275560;78;50164;-73
2023/03/11 01:58:56;;;;;;;;;;;;;;;19.77;57.91;98491.16;2275592;78;50640;-73
2023/03/11 02:02:01;;;;;;;;;;;;;;;19.79;57.91;98497.11;2246614;78;52540;-74
2023/03/11 02:05:03;;;;;;;;;;;;;;;19.83;58.00;98503.33;2308787;77;51482;-74
2023/03/11 02:08:05;;;;;;;;;;;;;;;19.85;58.02;98512.76;2313771;77;51394;-73
2023/03/11 02:11:07;;;;;;;;;;;;;;;19.86;58.02;98518.94;2312897;76;50259;-73
2023/03/11 02:14:09;;;;;;;;;;;;;;;19.89;57.97;98538.60;2246240;78;52594;-74
2023/03/11 02:17:11;;;;;;;;;;;;;;;19.92;57.94;98542.14;2298591;77;51575;-73
2023/03/11 02:20:14;;;;;;;;;;;;;;;19.91;57.88;98553.91;2278450;77;51326;-73
2023/03/11 02:23:16;;;;;;;;;;;;;;;19.90;57.89;98561.69;2284069;77;51768;-73
2023/03/11 02:26:22;;;;;;;;;;;;;;;19.88;57.90;98565.14;2242847;78;51305;-72
2023/03/11 02:29:24;;;;;;;;;;;;;;;19.84;57.91;98587.62;2275433;78;50244;-73
2023/03/11 02:32:26;;;;;;;;;;;;;;;19.80;57.94;98603.38;2291859;77;50314;-73
2023/03/11 02:35:27;;;;;;;;;;;;;;;19.77;57.94;98617.82;2269756;77;51176;-73
2023/03/11 02:38:29;;;;;;;;;;;;;;;19.74;58.08;98624.48;2232970;78;52270;-73
2023/03/11 02:41:31;;;;;;;;;;;;;;;19.75;58.14;98634.69;2229718;78;50535;-73
2023/03/11 02:44:32;;;;;;;;;;;;;;;19.77;58.15;98648.68;2264601;77;51381;-74
2023/03/11 02:47:34;;;;;;;;;;;;;;;19.76;58.13;98657.27;2298431;77;50672;-74
2023/03/11 02:50:36;;;;;;;;;;;;;;;19.78;58.11;98672.61;2250679;77;52796;-74
2023/03/11 02:53:39;;;;;;;;;;;;;;;19.79;58.09;98690.33;2272114;77;50388;-73
2023/03/11 02:56:40;;;;;;;;;;;;;;;19.82;58.06;98697.08;2265719;77;50776;-74
2023/03/11 02:59:42;;;;;;;;;;;;;;;19.85;57.95;98720.76;2298477;77;51457;-74
2023/03/11 03:02:44;;;;;;;;;;;;;;;19.89;58.03;98721.11;2243277;77;52485;-74
2023/03/11 03:05:45;;;;;;;;;;;;;;;19.91;57.91;98733.74;2271082;77;50644;-74
2023/03/11 03:08:47;;;;;;;;;;;;;;;19.90;57.81;98743.67;2264066;78;50201;-74
2023/03/11 03:11:49;;;;;;;;;;;;;;;19.88;57.82;98753.83;2281642;77;50228;-74
2023/03/11 03:14:50;;;;;;;;;;;;;;;19.86;57.80;98757.30;2277813;77;51075;-74
2023/03/11 03:17:52;;;;;;;;;;;;;;;19.82;57.87;98755.31;2289753;77;50622;-74
2023/03/11 03:20:53;;;;;;;;;;;;;;;19.77;57.88;98776.15;2288488;77;51419;-74
2023/03/11 03:23:55;;;;;;;;;;;;;;;19.74;58.00;98796.22;2273463;77;50372;-74
2023/03/11 03:26:57;;;;;;;;;;;;;;;19.72;58.16;98806.37;2238433;78;51660;-73
2023/03/11 03:29:58;;;;;;;;;;;;;;;19.73;58.11;98816.06;2273200;77;50629;-74
2023/03/11 03:33:00;;;;;;;;;;;;;;;19.72;58.11;98825.16;2279782;77;50318;-74
2023/03/11 03:36:03;;;;;;;;;;;;;;;19.76;58.14;98839.75;2310713;77;50711;-74
2023/03/11 03:39:05;;;;;;;;;;;;;;;19.77;58.10;98852.09;2279261;77;51260;-74
2023/03/11 03:42:06;;;;;;;;;;;;;;;19.78;58.10;98863.14;2288505;77;50181;-75
2023/03/11 03:45:08;;;;;;;;;;;;;;;19.82;58.00;98870.72;2312337;77;51438;-74
2023/03/11 03:48:10;;;;;;;;;;;;;;;19.85;57.98;98894.41;2267349;77;49929;-73
2023/03/11 03:51:12;;;;;;;;;;;;;;;19.87;57.95;98908.41;2235031;77;51131;-73
2023/03/11 03:54:13;;;;;;;;;;;;;;;19.89;57.92;98924.58;2279615;77;51398;-71
2023/03/11 03:57:15;;;;;;;;;;;;;;;19.92;57.89;98926.78;2281214;77;51413;-72
2023/03/11 04:00:17;;;;;;;;;;;;;;;19.92;57.84;98931.34;2276449;77;50195;-71
2023/03/11 04:03:18;;;;;;;;;;;;;;;19.91;57.85;98936.41;2227299;78;51177;-71
2023/03/11 04:06:24;;;;;;;;;;;;;;;19.88;57.86;98955.66;2259598;77;50067;-72
2023/03/11 04:09:25;;;;;;;;;;;;;;;19.84;57.90;98968.74;2263310;78;50370;-73
2023/03/11 04:12:27;;;;;;;;;;;;;;;19.80;57.93;98973.73;2250607;77;50369;-72
2023/03/11 04:15:28;;;;;;;;;;;;;;;19.76;58.15;98984.66;2229557;77;52278;-75
2023/03/11 04:18:30;;;;;;;;;;;;;;;19.75;58.15;98992.41;2265482;77;51417;-73
2023/03/11 04:21:32;;;;;;;;;;;;;;;19.75;58.20;99004.48;2302709;77;51466;-73
2023/03/11 04:24:33;;;;;;;;;;;;;;;19.77;58.11;99010.44;2290246;77;51500;-73
2023/03/11 04:27:37;;;;;;;;;;;;;;;19.78;58.14;99017.45;2254017;77;52527;-73
2023/03/11 04:30:39;;;;;;;;;;;;;;;19.79;58.14;99019.08;2269534;77;24944;-73
2023/03/11 04:33:40;;;;;;;;;;;;;;;19.82;58.06;99027.73;2286695;77;51470;-73
2023/03/11 04:36:42;;;;;;;;;;;;;;;19.84;57.97;99035.84;2240935;77;51424;-73
2023/03/11 04:39:43;;;;;;;;;;;;;;;19.87;57.93;99054.16;2240808;77;51062;-73
2023/03/11 04:42:45;;;;;;;;;;;;;;;19.90;57.93;99060.94;2271238;77;51465;-73
2023/03/11 04:45:48;;;;;;;;;;;;;;;19.94;57.83;99068.84;2289014;77;49895;-73
2023/03/11 04:48:50;;;;;;;;;;;;;;;19.93;57.73;99083.29;2301214;76;50264;-73
2023/03/11 04:51:51;;;;;;;;;;;;;;;19.91;57.81;99088.06;2300489;77;50344;-73
2023/03/11 04:54:53;;;;;;;;;;;;;;;19.88;57.95;99085.84;2262632;77;49960;-72
2023/03/11 04:57:54;;;;;;;;;;;;;;;19.84;58.03;99091.40;2299257;77;50693;-73
2023/03/11 05:00:56;;;;;;;;;;;;;;;19.80;58.08;99105.25;2271774;77;50588;-72
2023/03/11 05:03:58;;;;;;;;;;;;;;;19.77;58.06;99111.08;2254832;77;51441;-73
2023/03/11 05:06:59;;;;;;;;;;;;;;;19.74;58.32;99118.25;2262650;77;52286;-72
2023/03/11 05:10:01;;;;;;;;;;;;;;;19.74;58.39;99126.30;2262528;77;50537;-72
2023/03/11 05:13:02;;;;;;;;;;;;;;;19.79;58.34;99140.39;2268907;77;50188;-73
2023/03/11 05:16:05;;;;;;;;;;;;;;;19.83;58.28;99151.48;2237151;77;50987;-72
2023/03/11 05:19:29;;;;;;;;;;;;;;;19.84;58.27;99155.81;2232861;78;50618;-72
2023/03/11 05:22:10;;;;;;;;;;;;;;;19.87;58.31;99170.92;2276903;77;23150;-72
2023/03/11 05:25:11;;;;;;;;;;;;;;;19.88;58.04;99179.80;2302555;77;50702;-73
2023/03/11 05:28:13;;;;;;;;;;;;;;;19.90;57.88;99189.26;2242048;77;51655;-72
2023/03/11 05:31:15;;;;;;;;;;;;;;;19.94;57.71;99200.38;2279186;76;50412;-72
2023/03/11 05:34:16;;;;;;;;;;;;;;;19.98;57.63;99200.20;2284096;77;51371;-72
2023/03/11 05:37:18;;;;;;;;;;;;;;;19.96;57.50;99209.84;2298950;77;51640;-72
2023/03/11 05:40:20;;;;;;;;;;;;;;;20.04;57.62;99222.14;2261332;77;50004;-72
2023/03/11 05:43:21;;;;;;;;;;;;;;;20.13;57.27;99230.16;2279284;77;50360;-72
2023/03/11 05:46:23;;;;;;;;;;;;;;;20.11;57.43;99236.27;2299669;77;50386;-70
2023/03/11 05:49:24;;;;;;;;;;;;;;;20.10;57.34;99248.06;2249700;77;50722;-70
2023/03/11 05:52:26;;;;;;;;;;;;;;;20.05;57.29;99243.09;2284576;77;52469;-70
2023/03/11 05:55:27;;;;;;;;;;;;;;;20.08;57.15;99254.18;2292664;77;50433;-70
2023/03/11 05:58:29;;;;;;;;;;;;;;;20.10;57.07;99264.18;2291724;77;50568;-71
2023/03/11 06:01:31;;;;;;;;;;;;;;;20.15;56.99;99263.50;2234104;78;49960;-70
2023/03/11 06:04:32;;;;;;;;;;;;;;;20.23;56.81;99281.45;2212797;77;52262;-69
2023/03/11 06:07:34;;;;;;;;;;;;;;;20.31;56.65;99291.59;2300388;77;50682;-70
2023/03/11 06:10:36;;;;;;;;;;;;;;;20.36;56.45;99291.73;2277487;77;50742;-70
2023/03/11 06:13:38;;;;;;;;;;;;;;;20.42;56.41;99300.20;2272122;78;50617;-70
2023/03/11 06:16:40;;;;;;;;;;;;;;;20.48;56.39;99307.37;2283803;77;52535;-70
2023/03/11 06:19:42;;;;;;;;;;;;;;;20.52;56.32;99307.20;2270189;77;51586;-70
2023/03/11 06:22:43;;;;;;;;;;;;;;;20.59;56.16;99315.21;2279540;78;50325;-71
2023/03/11 06:25:47;;;;;;;;;;;;;;;20.54;56.18;99322.61;2254004;79;50677;-70
2023/03/11 06:28:48;;;;;;;;;;;;;;;20.47;56.33;99327.22;2250137;77;49882;-70
2023/03/11 06:31:50;;;;;;;;;;;;;;;20.40;56.45;99331.35;2284184;77;50603;-70
2023/03/11 06:34:52;;;;;;;;;;;;;;;20.33;56.60;99340.55;2258765;77;49959;-72
2023/03/11 06:37:53;;;;;;;;;;;;;;;20.26;56.78;99347.33;2224786;80;50314;-70
2023/03/11 06:40:56;;;;;;;;;;;;;;;20.21;57.08;99355.24;2173422;78;51168;-71
2023/03/11 06:43:58;;;;;;;;;;;;;;;20.25;57.10;99362.34;2237989;78;50634;-71
2023/03/11 06:47:01;;;;;;;;;;;;;;;20.23;57.26;99370.09;2289533;77;50761;-71
2023/03/11 06:50:05;;;;;;;;;;;;;;;20.29;57.09;99388.51;2243315;78;50275;-71
2023/03/11 06:53:06;;;;;;;;;;;;;;;20.32;56.98;99387.23;2213265;78;22372;-72
2023/03/11 06:56:09;;;;;;;;;;;;;;;20.33;56.82;99398.30;2250363;78;52491;-72
2023/03/11 06:59:10;;;;;;;;;;;;;;;20.14;50.04;99406.86;2246444;78;50760;-71
2023/03/11 07:02:12;;;;;;;;;;;;;;;19.97;50.95;99415.52;2225469;80;51472;-73
2023/03/11 07:05:13;;;;;;;;;;;;;;;20.06;51.90;99425.96;2167933;80;52423;-72
2023/03/11 07:08:15;;;;;;;;;;;;;;;20.14;52.26;99427.85;2243352;78;50781;-73
2023/03/11 07:11:17;;;;;;;;;;;;;;;20.21;52.47;99435.29;2216048;78;51590;-73
2023/03/11 07:14:19;;;;;;;;;;;;;;;20.27;52.67;99432.76;2252419;78;50854;-73
2023/03/11 07:17:20;;;;;;;;;;;;;;;20.34;52.80;99441.56;2198216;78;51699;-73
2023/03/11 07:20:22;;;;;;;;;;;;;;;20.39;52.91;99460.52;2256145;77;51453;-74
2023/03/11 07:23:24;;;;;;;;;;;;;;;20.48;52.90;99463.75;2205923;80;50673;-74
2023/03/11 07:26:25;;;;;;;;;;;;;;;20.49;52.97;99468.89;2258358;78;50689;-73
2023/03/11 07:29:27;;;;;;;;;;;;;;;20.46;53.09;99490.83;2193147;78;52422;-72
2023/03/11 07:32:28;;;;;;;;;;;;;;;20.40;53.33;99495.77;2242641;78;51521;-72
2023/03/11 07:35:30;;;;;;;;;;;;;;;20.34;53.53;99506.05;2265276;77;51413;-72
2023/03/11 07:38:31;;;;;;;;;;;;;;;20.25;53.76;99506.05;2266916;78;51287;-73
2023/03/11 07:41:34;;;;;;;;;;;;;;;20.16;53.95;99519.73;2228769;77;51625;-72
2023/03/11 07:44:35;;;;;;;;;;;;;;;20.13;54.12;99527.42;2265314;77;51534;-72
2023/03/11 07:47:37;;;;;;;;;;;;;;;20.15;54.18;99531.53;2246138;77;51408;-72
2023/03/11 07:50:38;;;;;;;;;;;;;;;20.21;54.05;99539.23;2268165;77;51370;-73
2023/03/11 07:53:40;;;;;;;;;;;;;;;20.30;53.95;99548.66;2200742;78;52800;-72
2023/03/11 07:56:41;;;;;;;;;;;;;;;20.37;53.85;99547.23;2272770;76;50083;-72
2023/03/11 07:59:43;;;;;;;;;;;;;;;20.43;53.66;99562.48;2260130;78;50665;-72
2023/03/11 08:02:45;;;;;;;;;;;;;;;20.46;53.58;99566.07;2255968;78;50663;-72
2023/03/11 08:05:46;;;;;;;;;;;;;;;20.51;53.47;99578.32;2238431;78;51536;-72
2023/03/11 08:08:48;;;;;;;;;;;;;;;20.59;53.30;99588.81;2275956;77;51523;-72
2023/03/11 08:11:50;;;;;;;;;;;;;;;20.59;53.26;99594.19;2284865;77;50759;-72
2023/03/11 08:14:51;;;;;;;;;;;;;;;20.65;53.22;99600.53;2250203;77;50022;-72
2023/03/11 08:17:53;;;;;;;;;;;;;;;20.70;53.13;99607.94;2221320;79;51670;-72
2023/03/11 08:20:54;;;;;;;;;;;;;;;20.66;53.14;99615.11;2276282;77;51384;-72
2023/03/11 08:23:57;;;;;;;;;;;;;;;20.61;53.23;99613.60;2281813;77;51411;-72
2023/03/11 08:26:58;;;;;;;;;;;;;;;20.54;53.38;99622.74;2266004;78;51505;-72
2023/03/11 08:30:00;;;;;;;;;;;;;;;20.45;53.56;99627.58;2260953;78;50172;-73
2023/03/11 08:33:02;;;;;;;;;;;;;;;20.37;53.79;99639.43;2245751;78;51144;-73
2023/03/11 08:36:03;;;;;;;;;;;;;;;20.33;54.00;99644.11;2277581;77;51622;-72
2023/03/11 08:39:05;;;;;;;;;;;;;;;20.31;54.12;99655.59;2278531;77;50590;-72
2023/03/11 08:42:07;;;;;;;;;;;;;;;20.35;54.02;99657.63;2223357;78;51139;-72
2023/03/11 08:45:08;;;;;;;;;;;;;;;20.39;53.90;99664.72;2271344;77;50587;-71
2023/03/11 08:48:10;;;;;;;;;;;;;;;20.43;53.79;99671.31;2274858;77;49919;-72
2023/03/11 08:51:12;;;;;;;;;;;;;;;20.44;53.74;99676.97;2252384;78;50666;-73
2023/03/11 08:54:13;;;;;;;;;;;;;;;20.46;53.69;99682.95;2197526;78;51035;-72
2023/03/11 08:57:15;;;;;;;;;;;;;;;20.51;53.62;99696.56;2259422;78;50711;-73
2023/03/11 09:00:17;;;;;;;;;;;;;;;20.54;53.57;99702.87;2279031;76;50655;-73
2023/03/11 09:03:19;;;;;;;;;;;;;;;20.58;53.46;99704.61;2284917;77;51543;-73
2023/03/11 09:06:20;;;;;;;;;;;;;;;20.60;53.35;99702.02;2256772;77;51687;-72
2023/03/11 09:09:22;;;;;;;;;;;;;;;20.63;53.25;99702.91;2254133;78;50604;-73
2023/03/11 09:12:23;;;;;;;;;;;;;;;20.61;53.24;99718.42;2246064;77;50598;-72
2023/03/11 09:15:25;;;;;;;;;;;;;;;20.56;53.33;99716.91;2231648;77;51630;-73
2023/03/11 09:18:28;;;;;;;;;;;;;;;20.51;53.44;99723.44;2222155;78;51676;-73
2023/03/11 09:21:29;;;;;;;;;;;;;;;20.40;53.63;99728.18;2287141;76;51443;-73
2023/03/11 09:24:34;;;;;;;;;;;;;;;20.33;53.77;99736.80;2282748;77;50266;-72
2023/03/11 09:27:35;;;;;;;;;;;;;;;20.27;53.90;99737.15;2239406;78;51171;-73
2023/03/11 09:30:37;;;;;;;;;;;;;;;20.27;53.99;99738.98;2238547;78;49544;-72
2023/03/11 09:33:39;;;;;;;;;;;;;;;20.32;53.94;99745.88;2227461;78;51511;-71
2023/03/11 09:36:40;;;;;;;;;;;;;;;20.36;53.83;99745.77;2261332;76;51352;-72
2023/03/11 09:39:42;;;;;;;;;;;;;;;20.40;53.72;99750.48;2290833;77;50397;-72
2023/03/11 09:42:48;;;;;;;;;;;;;;;20.46;53.53;99763.58;2226509;78;51998;-72
2023/03/11 09:45:51;;;;;;;;;;;;;;;20.50;53.50;99767.48;2282915;76;51400;-72
2023/03/11 09:48:55;;;;;;;;;;;;;;;20.54;53.40;99767.37;2306911;77;51647;-72
2023/03/11 09:52:12;;;;;;;;;;;;;;;20.58;53.32;99772.63;2306267;76;50629;-73
2023/03/11 09:55:28;;;;;;;;;;;;;;;20.62;53.22;99776.50;2249267;77;51698;-73
2023/03/11 09:58:31;;;;;;;;;;;;;;;20.66;53.08;99786.32;2291827;76;51406;-72
2023/03/11 10:01:37;;;;;;;;;;;;;;;20.64;53.06;99795.12;2296337;77;51705;-72
2023/03/11 10:04:46;;;;;;;;;;;;;;;20.57;53.15;99797.84;2282407;77;51670;-73
2023/03/11 10:07:49;;;;;;;;;;;;;;;20.50;53.21;99804.26;2264856;77;49634;-73
2023/03/11 10:10:55;;;;;;;;;;;;;;;20.42;53.38;99809.38;2286361;77;52288;-72
2023/03/11 10:14:01;;;;;;;;;;;;;;;20.33;53.56;99812.02;2314116;76;52140;-71
2023/03/11 10:17:07;;;;;;;;;;;;;;;20.26;53.68;99820.63;2301762;76;51767;-71
2023/03/11 10:20:11;;;;;;;;;;;;;;;20.24;53.78;99827.55;2297219;76;50274;-72
2023/03/11 10:23:18;;;;;;;;;;;;;;;20.29;53.72;99837.66;2302916;76;51736;-72
2023/03/11 10:26:23;;;;;;;;;;;;;;;20.34;53.64;99845.90;2312227;76;50415;-72
2023/03/11 10:29:32;;;;;;;;;;;;;;;20.37;53.55;99844.97;2303654;76;50332;-72
2023/03/11 10:32:38;;;;;;;;;;;;;;;20.41;53.47;99844.01;2300662;76;50628;-72
2023/03/11 10:35:41;;;;;;;;;;;;;;;20.44;53.33;99848.95;2252227;78;51711;-71
2023/03/11 10:38:45;;;;;;;;;;;;;;;20.49;53.22;99849.66;2313259;76;50294;-72
2023/03/11 10:41:48;;;;;;;;;;;;;;;20.51;53.17;99856.46;2294095;77;51604;-71
2023/03/11 10:44:50;;;;;;;;;;;;;;;20.51;53.18;99856.46;2293940;77;51436;-72
2023/03/11 10:47:52;;;;;;;;;;;;;;;20.56;53.09;99864.73;2270520;76;52520;-72
2023/03/11 10:51:03;;;;;;;;;;;;;;;20.62;52.96;99863.86;2293916;77;51576;-72
2023/03/11 10:54:05;;;;;;;;;;;;;;;20.65;52.81;99866.14;2306041;76;51562;-72
2023/03/11 10:57:08;;;;;;;;;;;;;;;20.61;52.85;99878.36;2290040;77;51442;-71
2023/03/11 11:00:16;;;;;;;;;;;;;;;20.57;52.95;99882.50;2267971;76;51111;-72
2023/03/11 11:03:21;;;;;;;;;;;;;;;20.49;53.10;99884.59;2280067;78;22502;-71
2023/03/11 11:06:25;;;;;;;;;;;;;;;20.40;53.23;99879.99;2282269;76;51542;-72
2023/03/11 11:09:29;;;;;;;;;;;;;;;20.32;53.35;99886.43;2266136;77;51490;-71
2023/03/11 11:12:30;;;;;;;;;;;;;;;20.27;53.51;99886.73;2267955;77;22201;-73
2023/03/11 11:15:39;;;;;;;;;;;;;;;20.28;53.53;99893.78;2291427;76;49771;-73
2023/03/11 11:18:44;;;;;;;;;;;;;;;20.32;53.43;99893.15;2285640;77;51434;-72
2023/03/11 11:21:47;;;;;;;;;;;;;;;20.35;53.41;99893.23;2301594;76;52322;-72
2023/03/11 11:24:52;;;;;;;;;;;;;;;20.37;53.33;99891.98;2296914;77;52544;-73
2023/03/11 11:27:55;;;;;;;;;;;;;;;20.42;53.20;99904.77;2269729;76;51138;-72
2023/03/11 11:31:00;;;;;;;;;;;;;;;20.43;53.17;99906.42;2276429;76;50265;-72
2023/03/11 11:34:01;;;;;;;;;;;;;;;20.47;53.07;99906.29;2269311;77;50696;-71
2023/03/11 11:37:04;;;;;;;;;;;;;;;20.50;52.99;99908.58;2256706;76;52339;-72
2023/03/11 11:40:09;;;;;;;;;;;;;;;20.55;52.84;99911.48;2255984;77;50235;-72
2023/03/11 11:43:20;;;;;;;;;;;;;;;20.61;52.65;99912.48;2268113;77;23044;-70
2023/03/11 11:46:23;;;;;;;;;;;;;;;20.66;52.49;99922.07;2241876;78;52385;-73
2023/03/11 11:49:28;;;;;;;;;;;;;;;20.63;52.50;99913.91;2194671;80;49467;-73
2023/03/11 11:52:40;;;;;;;;;;;;;;;20.57;52.61;99909.37;2258141;78;50651;-72
2023/03/11 11:55:43;;;;;;;;;;;;;;;20.51;52.71;99907.52;2265335;78;50631;-72
2023/03/11 11:58:45;;;;;;;;;;;;;;;20.43;52.81;99911.80;2260390;77;51404;-72
2023/03/11 12:01:51;;;;;;;;;;;;;;;20.35;52.99;99913.39;2172013;80;52100;-71
2023/03/11 12:05:11;;;;;;;;;;;;;;;20.31;53.13;99910.81;2246457;78;50645;-71
2023/03/11 12:08:17;;;;;;;;;;;;;;;20.32;53.18;99917.82;2260272;78;51612;-71
2023/03/11 12:11:20;;;;;;;;;;;;;;;20.37;53.12;99914.83;2253823;77;50398;-71
2023/03/11 12:14:23;;;;;;;;;;;;;;;20.41;53.01;99920.59;2194923;80;51184;-72
2023/03/11 12:17:25;;;;;;;;;;;;;;;20.45;52.93;99914.58;2239274;79;49863;-72
2023/03/11 12:20:29;;;;;;;;;;;;;;;20.48;52.87;99920.58;2229996;79;50221;-72
2023/03/11 12:23:35;;;;;;;;;;;;;;;20.53;52.81;99927.48;2252084;78;51771;-72
2023/03/11 12:26:37;;;;;;;;;;;;;;;20.57;52.69;99935.44;2184271;78;51702;-73
2023/03/11 12:29:40;;;;;;;;;;;;;;;20.59;52.62;99932.02;2213535;78;50597;-72
2023/03/11 12:32:43;;;;;;;;;;;;;;;20.63;52.47;99937.29;2240409;78;50245;-73
2023/03/11 12:35:54;;;;;;;;;;;;;;;20.66;52.39;99933.64;2269032;78;50599;-72
2023/03/11 12:38:56;;;;;;;;;;;;;;;20.64;52.31;99945.12;2237543;77;51774;-72
2023/03/11 12:42:11;;;;;;;;;;;;;;;20.58;52.42;99945.16;2272790;77;50650;-72
2023/03/11 12:45:21;;;;;;;;;;;;;;;20.51;52.58;99947.84;2262483;77;51681;-72
2023/03/11 12:48:27;;;;;;;;;;;;;;;20.40;52.75;99953.88;2258939;77;50696;-72
2023/03/11 12:51:38;;;;;;;;;;;;;;;20.33;52.87;99963.30;2279408;76;50705;-73
2023/03/11 12:54:43;;;;;;;;;;;;;;;20.27;53.07;99957.92;2297900;77;50625;-72
2023/03/11 12:57:49;;;;;;;;;;;;;;;20.27;53.18;99957.92;2296013;77;50665;-72
2023/03/11 13:01:04;;;;;;;;;;;;;;;20.31;53.13;99959.17;2307664;77;50271;-72
2023/03/11 13:04:14;;;;;;;;;;;;;;;20.34;52.97;99961.42;2262271;77;51613;-72
2023/03/11 13:07:27;;;;;;;;;;;;;;;20.38;52.88;99967.52;2267206;77;50740;-73
2023/03/11 13:10:37;;;;;;;;;;;;;;;20.43;52.81;99974.95;2280260;77;22359;-73
2023/03/11 13:13:41;;;;;;;;;;;;;;;20.45;52.67;99975.05;2283836;77;50336;-74
2023/03/11 13:16:43;;;;;;;;;;;;;;;20.51;52.59;99972.55;2250298;77;52615;-72
2023/03/11 13:19:48;;;;;;;;;;;;;;;20.57;52.69;99987.84;2269581;78;50702;-72
2023/03/11 13:22:54;;;;;;;;;;;;;;;20.62;52.64;99978.10;2286540;77;50679;-72
2023/03/11 13:25:57;;;;;;;;;;;;;;;20.66;52.63;99986.06;2295186;77;50461;-73
2023/03/11 13:29:01;;;;;;;;;;;;;;;20.65;52.72;99991.14;2268638;77;51202;-72
2023/03/11 13:32:21;;;;;;;;;;;;;;;20.59;52.88;99990.62;2294966;77;50378;-72
2023/03/11 13:35:30;;;;;;;;;;;;;;;20.53;52.99;99992.80;2288113;77;51401;-72
2023/03/11 13:38:45;;;;;;;;;;;;;;;20.45;53.11;99999.76;2287284;77;51642;-73
2023/03/11 13:41:46;;;;;;;;;;;;;;;20.35;53.30;100002.05;2244594;77;50903;-73
2023/03/11 13:44:48;;;;;;;;;;;;;;;20.29;53.45;100004.22;2276138;77;50733;-72
2023/03/11 13:47:50;;;;;;;;;;;;;;;20.29;53.53;100008.25;2278679;77;51450;-72
2023/03/11 13:50:53;;;;;;;;;;;;;;;20.35;53.46;100011.46;2273517;77;51555;-72
2023/03/11 13:53:56;;;;;;;;;;;;;;;20.38;53.35;100010.51;2263819;77;49582;-72
2023/03/11 13:56:58;;;;;;;;;;;;;;;20.44;53.21;100017.72;2272463;77;50275;-71
2023/03/11 14:00:22;;;;;;;;;;;;;;;20.48;53.11;100025.38;2277837;77;51422;-71
2023/03/11 14:03:24;;;;;;;;;;;;;;;20.54;52.98;100024.03;2276286;77;22934;-71
2023/03/11 14:06:25;;;;;;;;;;;;;;;20.58;52.86;100029.83;2220108;78;50132;-71
2023/03/11 14:09:27;;;;;;;;;;;;;;;20.60;52.75;100032.61;2253579;77;50416;-70
2023/03/11 14:12:30;;;;;;;;;;;;;;;20.64;52.59;100027.11;2277706;77;51313;-72
2023/03/11 14:15:34;;;;;;;;;;;;;;;20.65;52.53;100030.12;2258028;78;51397;-71
2023/03/11 14:18:36;;;;;;;;;;;;;;;20.63;52.57;100033.53;2242965;78;52483;-72
2023/03/11 14:21:39;;;;;;;;;;;;;;;20.56;52.61;100031.38;2252291;78;50037;-71
2023/03/11 14:24:43;;;;;;;;;;;;;;;20.48;52.79;100042.33;2256339;78;51578;-71
2023/03/11 14:27:49;;;;;;;;;;;;;;;20.39;52.97;100044.39;2280192;77;50379;-71
2023/03/11 14:30:57;;;;;;;;;;;;;;;20.31;53.10;100041.11;2241289;79;49723;-72
2023/03/11 14:34:03;;;;;;;;;;;;;;;20.25;53.27;100048.16;2281272;78;50631;-71
2023/03/11 14:37:03;;;;;;;;;;;;;;;20.27;53.26;100050.61;2279645;77;22390;-71
2023/03/11 14:40:07;;;;;;;;;;;;;;;20.29;53.20;100049.38;2278095;77;50234;-71
2023/03/11 14:43:09;;;;;;;;;;;;;;;20.34;53.08;100052.26;2225689;78;50905;-71
2023/03/11 14:46:15;;;;;;;;;;;;;;;20.39;52.96;100055.66;2303515;77;51455;-72
2023/03/11 14:49:18;;;;;;;;;;;;;;;20.45;52.83;100064.25;2267106;77;22584;-71
2023/03/11 14:52:21;;;;;;;;;;;;;;;20.51;52.65;100066.09;2275486;77;50756;-74
2023/03/11 14:55:24;;;;;;;;;;;;;;;20.56;52.50;100073.03;2252840;77;52463;-71
2023/03/11 14:58:37;;;;;;;;;;;;;;;20.60;52.41;100069.40;2297124;77;51394;-73
2023/03/11 15:01:39;;;;;;;;;;;;;;;20.64;52.34;100069.30;2274762;77;22348;-71
2023/03/11 15:04:43;;;;;;;;;;;;;;;20.70;52.17;100071.66;2299054;77;22834;-72
2023/03/11 15:07:44;;;;;;;;;;;;;;;20.74;52.04;100060.80;2295225;77;22452;-71
2023/03/11 15:11:04;;;;;;;;;;;;;;;20.71;52.06;100071.98;2268039;78;51487;-71
2023/03/11 15:14:07;;;;;;;;;;;;;;;20.64;52.24;100078.70;2278637;78;50487;-71
2023/03/11 15:17:10;;;;;;;;;;;;;;;20.53;52.46;100070.74;2289528;77;50771;-72
2023/03/11 15:20:25;;;;;;;;;;;;;;;20.47;52.57;100073.43;2244323;77;52550;-72
2023/03/11 15:23:26;;;;;;;;;;;;;;;20.40;52.77;100070.77;2244592;78;51241;-72
2023/03/11 15:26:31;;;;;;;;;;;;;;;20.34;52.97;100075.62;2257105;77;52217;-73
2023/03/11 15:29:33;;;;;;;;;;;;;;;20.35;53.06;100079.98;2292481;77;51482;-72
2023/03/11 15:32:37;;;;;;;;;;;;;;;20.40;52.97;100078.83;2284324;77;50315;-72
2023/03/11 15:35:45;;;;;;;;;;;;;;;20.46;52.84;100076.64;2241605;78;51196;-73
2023/03/11 15:38:47;;;;;;;;;;;;;;;20.52;52.72;100091.91;2275220;77;51451;-71
2023/03/11 15:42:02;;;;;;;;;;;;;;;20.58;52.55;100091.66;2278507;78;51497;-70
2023/03/11 15:45:05;;;;;;;;;;;;;;;20.63;52.38;100084.61;2218163;78;52607;-71
2023/03/11 15:48:08;;;;;;;;;;;;;;;20.62;52.36;100089.66;2293067;77;51426;-71
2023/03/11 15:51:14;;;;;;;;;;;;;;;20.56;52.49;100097.75;2299058;77;51339;-70